createdAt,value
2019-05-02T00:02:30.185Z,12.47
2019-05-02T00:05:00.410Z,15.43
2019-05-02T00:07:28.904Z,13.10
2019-05-02T00:10:01.588Z,13.85
2019-05-02T00:12:30.453Z,13.13
2019-05-02T00:15:02.124Z,17.35
2019-05-02T00:17:32.707Z,13.33
2019-05-02T00:20:01.127Z,14.87
2019-05-02T00:22:33.091Z,11.83
2019-05-02T00:25:01.546Z,14.45
2019-05-02T00:27:32.720Z,16.70
2019-05-02T00:30:00.392Z,13.65
2019-05-02T00:32:28.943Z,13.53
2019-05-02T00:34:59.502Z,13.40
2019-05-02T00:37:28.003Z,16.07
2019-05-02T00:39:57.498Z,16.75
2019-05-02T00:42:29.700Z,14.40
2019-05-02T00:44:58.119Z,16.97
2019-05-02T00:47:31.694Z,19.97
2019-05-02T00:50:00.115Z,16.55
2019-05-02T00:52:32.943Z,17.47
2019-05-02T00:54:59.892Z,17.10
2019-05-02T00:57:29.586Z,19.63
2019-05-02T00:59:58.949Z,18.98
2019-05-02T01:02:40.569Z,19.07
2019-05-02T01:05:11.746Z,21.02
2019-05-02T01:07:40.207Z,22.58
2019-05-02T01:10:17.027Z,16.85
2019-05-02T01:12:44.387Z,18.05
2019-05-02T01:15:13.298Z,16.52
2019-05-02T01:17:46.431Z,23.42
2019-05-02T01:20:15.966Z,23.62
2019-05-02T01:22:51.968Z,22.00
2019-05-02T01:25:19.761Z,20.57
2019-05-02T01:28:12.735Z,22.45
2019-05-02T01:30:44.559Z,23.32
2019-05-02T01:33:32.222Z,24.85
2019-05-02T01:36:11.364Z,24.67
2019-05-02T01:38:55.457Z,24.52
2019-05-02T01:41:28.588Z,25.08
2019-05-02T01:43:54.978Z,27.48
2019-05-02T01:46:24.279Z,26.73
2019-05-02T01:48:52.723Z,28.30
2019-05-02T01:51:25.045Z,28.30
2019-05-02T01:53:53.475Z,29.60
2019-05-02T01:56:24.403Z,28.95
2019-05-02T01:58:57.297Z,28.60
2019-05-02T02:01:23.349Z,27.70
2019-05-02T02:03:51.936Z,26.62
2019-05-02T02:06:20.411Z,27.02
2019-05-02T02:08:52.671Z,25.90
2019-05-02T02:11:28.499Z,24.87
2019-05-02T02:13:56.326Z,21.50
2019-05-02T02:16:24.831Z,25.95
2019-05-02T02:19:10.036Z,28.10
2019-05-02T02:21:42.752Z,26.73
2019-05-02T02:24:12.755Z,30.80
2019-05-02T02:26:43.705Z,29.35
2019-05-02T02:29:11.300Z,29.60
2019-05-02T02:31:46.275Z,28.77
2019-05-02T02:34:09.963Z,26.50
2019-05-02T02:36:38.384Z,31.70
2019-05-02T02:39:14.424Z,30.37
2019-05-02T02:41:45.275Z,33.35
2019-05-02T02:44:33.554Z,31.15
2019-05-02T02:47:00.838Z,33.20
2019-05-02T02:49:29.257Z,35.80
2019-05-02T02:52:04.157Z,35.17
2019-05-02T02:54:28.937Z,36.73
2019-05-02T02:56:58.320Z,34.88
2019-05-02T02:59:28.141Z,30.07
2019-05-02T03:02:08.680Z,33.15
2019-05-02T03:04:27.008Z,40.20
2019-05-02T03:06:55.613Z,34.05
2019-05-02T03:09:26.489Z,38.60
2019-05-02T03:12:14.253Z,34.63
2019-05-02T03:14:47.246Z,36.48
2019-05-02T03:17:20.371Z,35.38
2019-05-02T03:19:45.193Z,42.10
2019-05-02T03:22:19.062Z,44.33
2019-05-02T03:24:50.367Z,42.05
2019-05-02T03:27:18.890Z,41.80
2019-05-02T03:29:47.610Z,48.48
2019-05-02T03:32:31.466Z,42.40
2019-05-02T03:34:53.527Z,42.10
2019-05-02T03:37:19.255Z,40.30
2019-05-02T03:39:57.413Z,43.35
2019-05-02T03:42:21.305Z,43.77
2019-05-02T03:44:56.072Z,46.45
2019-05-02T03:47:21.096Z,46.87
2019-05-02T03:49:52.258Z,44.42
2019-05-02T03:52:23.358Z,50.00
2019-05-02T03:54:52.438Z,47.85
2019-05-02T03:57:31.999Z,42.67
2019-05-02T03:59:53.517Z,44.13
2019-05-02T04:02:22.304Z,45.27
2019-05-02T04:04:54.307Z,45.17
2019-05-02T04:07:21.683Z,40.67
2019-05-02T04:09:50.951Z,41.50
2019-05-02T04:12:21.948Z,47.60
2019-05-02T04:14:56.018Z,47.40
2019-05-02T04:17:28.684Z,46.43
2019-05-02T04:19:56.789Z,49.65
2019-05-02T04:22:26.084Z,42.50
2019-05-02T04:24:56.794Z,45.67
2019-05-02T04:27:27.745Z,43.20
2019-05-02T04:29:56.875Z,40.25
2019-05-02T04:32:26.270Z,46.77
2019-05-02T04:34:57.759Z,44.90
2019-05-02T04:37:25.200Z,44.10
2019-05-02T04:39:57.886Z,46.40
2019-05-02T04:42:23.806Z,49.13
2019-05-02T04:45:11.863Z,43.83
2019-05-02T04:47:28.957Z,45.53
2019-05-02T04:49:58.012Z,48.55
2019-05-02T04:52:29.970Z,47.97
2019-05-02T04:55:12.071Z,49.73
2019-05-02T04:57:36.265Z,43.23
2019-05-02T05:00:06.715Z,42.88
2019-05-02T05:02:34.198Z,47.67
2019-05-02T05:05:02.140Z,50.52
2019-05-02T05:07:40.905Z,43.23
2019-05-02T05:10:04.617Z,45.38
2019-05-02T05:12:39.976Z,40.48
2019-05-02T05:15:03.609Z,47.03
2019-05-02T05:17:34.191Z,46.35
2019-05-02T05:20:10.951Z,44.48
2019-05-02T05:22:36.519Z,43.08
2019-05-02T05:25:04.587Z,52.27
2019-05-02T05:27:33.057Z,45.38
2019-05-02T05:30:07.914Z,56.68
2019-05-02T05:32:31.628Z,46.73
2019-05-02T05:35:03.516Z,46.28
2019-05-02T05:37:32.663Z,51.73
2019-05-02T05:40:01.327Z,42.45
2019-05-02T05:42:33.184Z,41.50
2019-05-02T05:51:02.909Z,40.95
2019-05-02T05:53:31.321Z,48.23
2019-05-02T05:56:02.501Z,45.23
2019-05-02T05:58:29.908Z,43.17
2019-05-02T06:00:58.752Z,44.88
2019-05-02T06:03:27.809Z,40.83
2019-05-02T06:05:58.017Z,46.18
2019-05-02T06:08:26.519Z,39.15
2019-05-02T06:10:54.936Z,41.58
2019-05-02T06:13:23.434Z,39.98
2019-05-02T06:16:02.011Z,38.80
2019-05-02T06:18:21.999Z,37.10
2019-05-02T06:20:58.235Z,40.28
2019-05-02T06:23:25.449Z,37.78
2019-05-02T06:25:53.886Z,37.98
2019-05-02T06:28:22.424Z,37.88
2019-05-02T06:30:50.808Z,40.95
2019-05-02T06:33:19.245Z,40.43
2019-05-02T06:35:51.882Z,33.35
2019-05-02T06:38:21.697Z,33.88
2019-05-02T06:40:48.021Z,29.82
2019-05-02T06:43:16.454Z,30.05
2019-05-02T06:45:44.882Z,29.27
2019-05-02T06:48:17.511Z,31.15
2019-05-02T06:50:43.478Z,34.95
2019-05-02T06:53:11.909Z,34.60
2019-05-02T06:55:40.345Z,35.05
2019-05-02T06:58:08.745Z,40.48
2019-05-02T07:00:55.248Z,39.85
2019-05-02T07:03:10.337Z,34.70
2019-05-02T07:05:37.524Z,35.17
2019-05-02T07:08:11.033Z,34.00
2019-05-02T07:10:44.583Z,32.65
2019-05-02T07:13:10.865Z,34.60
2019-05-02T07:15:40.361Z,34.43
2019-05-02T07:18:15.667Z,35.05
2019-05-02T07:20:44.131Z,32.75
2019-05-02T07:23:16.153Z,35.95
2019-05-02T07:25:45.247Z,35.73
2019-05-02T07:28:16.742Z,34.18
2019-05-02T07:30:45.156Z,35.30
2019-05-02T07:33:13.574Z,29.32
2019-05-02T07:35:42.037Z,33.40
2019-05-02T07:38:10.453Z,35.40
2019-05-02T07:40:43.228Z,35.83
2019-05-02T07:43:13.494Z,41.65
2019-05-02T07:45:45.459Z,39.27
2019-05-02T07:48:12.522Z,44.73
2019-05-02T07:50:46.583Z,33.33
2019-05-02T07:53:14.383Z,40.70
2019-05-02T07:55:43.426Z,38.10
2019-05-02T07:58:11.941Z,39.42
2019-05-02T08:00:40.365Z,37.58
2019-05-02T08:03:12.558Z,32.95
2019-05-02T08:05:41.945Z,29.45
2019-05-02T08:08:14.409Z,32.63
2019-05-02T08:13:17.465Z,34.10
2019-05-02T08:15:45.696Z,36.55
2019-05-02T08:18:19.135Z,31.80
2019-05-02T08:20:56.092Z,34.18
2019-05-02T08:23:27.703Z,36.38
2019-05-02T08:25:56.792Z,34.88
2019-05-02T08:28:34.660Z,30.73
2019-05-02T08:31:03.078Z,30.30
2019-05-02T08:33:34.828Z,28.15
2019-05-02T08:36:06.261Z,33.13
2019-05-02T08:38:43.326Z,27.30
2019-05-02T08:41:11.756Z,27.52
2019-05-02T08:43:44.694Z,27.70
2019-05-02T08:46:14.422Z,30.02
2019-05-02T08:48:43.573Z,27.60
2019-05-02T08:51:12.626Z,24.32
2019-05-02T08:53:43.460Z,27.48
2019-05-02T08:56:16.019Z,26.82
2019-05-02T08:58:44.914Z,26.00
2019-05-02T09:01:18.779Z,22.80
2019-05-02T09:03:56.993Z,24.40
2019-05-02T09:06:25.627Z,20.27
2019-05-02T09:08:54.054Z,19.00
2019-05-02T09:11:22.456Z,17.20
2019-05-02T09:13:54.983Z,17.65
2019-05-02T09:18:55.599Z,15.37
2019-05-02T09:21:26.725Z,23.20
2019-05-02T09:23:54.468Z,16.50
2019-05-02T09:26:35.036Z,14.18
2019-05-02T09:28:56.333Z,13.62
2019-05-02T09:31:25.880Z,16.40
2019-05-02T09:33:55.652Z,15.85
2019-05-02T09:36:24.221Z,14.18
2019-05-02T09:39:00.206Z,13.22
2019-05-02T09:41:34.415Z,12.33
2019-05-02T09:44:03.956Z,10.00
2019-05-02T09:46:35.084Z,12.47
2019-05-02T09:49:16.660Z,14.60
2019-05-02T09:51:45.598Z,11.33
2019-05-02T09:54:14.669Z,10.05
2019-05-02T09:56:49.655Z,10.05
2019-05-02T09:59:27.671Z,13.13
2019-05-02T10:01:48.253Z,10.20
2019-05-02T10:04:16.720Z,12.90
2019-05-02T10:06:47.649Z,10.90
2019-05-02T10:09:18.772Z,11.93
2019-05-02T10:11:46.252Z,13.38
2019-05-02T10:14:25.672Z,11.68
2019-05-02T10:17:06.985Z,12.58
2019-05-02T10:19:48.820Z,13.95
2019-05-02T10:22:12.259Z,12.80
2019-05-02T10:24:42.535Z,11.30
2019-05-02T10:27:12.661Z,12.75
2019-05-02T10:29:41.857Z,12.60
2019-05-02T10:32:15.065Z,13.72
2019-05-02T10:34:47.442Z,10.82
2019-05-02T10:37:13.357Z,13.32
2019-05-02T10:39:43.854Z,12.78
2019-05-02T10:42:12.521Z,14.13
2019-05-02T10:44:42.683Z,16.17
2019-05-02T10:47:19.186Z,13.78
2019-05-02T10:49:58.370Z,14.63
2019-05-02T10:52:31.394Z,13.97
2019-05-02T10:54:59.541Z,11.88
2019-05-02T10:57:27.935Z,13.80
2019-05-02T10:59:56.363Z,15.50
2019-05-02T11:02:26.605Z,15.87
2019-05-02T11:05:08.723Z,18.05
2019-05-02T11:07:41.885Z,16.45
2019-05-02T11:13:23.505Z,18.55
2019-05-02T11:16:01.704Z,17.23
2019-05-02T11:18:41.981Z,22.07
2019-05-02T11:21:08.090Z,18.82
2019-05-02T11:23:37.555Z,18.35
2019-05-02T11:26:06.143Z,18.80
2019-05-02T11:28:34.671Z,18.70
2019-05-02T11:31:07.561Z,19.77
2019-05-02T11:33:36.797Z,22.50
2019-05-02T11:36:05.209Z,26.23
2019-05-02T11:38:34.146Z,24.77
2019-05-02T11:41:02.877Z,24.95
2019-05-02T11:43:32.595Z,27.42
2019-05-02T11:46:06.956Z,29.30
2019-05-02T11:48:31.976Z,23.07
2019-05-02T11:51:02.614Z,31.60
2019-05-02T11:53:32.549Z,25.37
2019-05-02T11:56:03.723Z,25.60
2019-05-02T11:58:32.490Z,26.23
2019-05-02T12:01:05.025Z,27.75
2019-05-02T12:03:36.923Z,26.95
2019-05-02T12:06:06.690Z,30.15
2019-05-02T12:11:08.437Z,29.07
2019-05-02T12:13:36.053Z,34.00
2019-05-02T12:16:08.670Z,25.65
2019-05-02T12:18:37.082Z,31.05
2019-05-02T12:21:07.856Z,32.40
2019-05-02T12:23:36.531Z,31.10
2019-05-02T12:26:07.633Z,28.62
2019-05-02T12:28:36.088Z,32.63
2019-05-02T12:31:07.988Z,30.55
2019-05-02T12:33:37.092Z,31.05
2019-05-02T12:36:07.990Z,31.85
2019-05-02T12:38:36.415Z,29.95
2019-05-02T12:41:04.992Z,32.40
2019-05-02T12:43:33.563Z,33.33
2019-05-02T12:46:06.194Z,31.93
2019-05-02T12:48:34.620Z,27.32
2019-05-02T12:51:03.045Z,34.03
2019-05-02T12:53:32.639Z,32.13
2019-05-02T12:56:02.192Z,35.13
2019-05-02T12:58:32.492Z,28.50
2019-05-02T13:01:05.437Z,26.68
2019-05-02T13:03:38.285Z,26.87
2019-05-02T13:06:06.697Z,28.07
2019-05-02T13:08:36.754Z,28.30
2019-05-02T13:11:14.306Z,31.42
2019-05-02T13:13:43.621Z,31.90
2019-05-02T13:16:12.462Z,27.55
2019-05-02T13:18:42.396Z,29.07
2019-05-02T13:21:17.071Z,34.18
2019-05-02T13:23:51.705Z,38.58
2019-05-02T13:26:26.262Z,34.05
2019-05-02T13:28:51.683Z,38.02
2019-05-02T13:31:25.982Z,38.60
2019-05-02T13:33:58.738Z,37.28
2019-05-02T13:36:46.175Z,40.90
2019-05-02T13:39:33.268Z,35.13
2019-05-02T13:42:01.852Z,39.73
2019-05-02T13:44:32.685Z,32.90
2019-05-02T13:47:14.429Z,38.55
2019-05-02T13:49:53.244Z,44.25
2019-05-02T13:52:13.629Z,42.60
2019-05-02T13:54:42.607Z,35.58
2019-05-02T13:57:12.139Z,33.38
2019-05-02T13:59:41.669Z,34.95
2019-05-02T14:02:31.643Z,29.60
2019-05-02T14:05:02.094Z,29.75
2019-05-02T14:07:30.359Z,30.97
2019-05-02T14:10:02.446Z,28.70
2019-05-02T14:12:36.608Z,29.57
2019-05-02T14:15:06.851Z,34.23
2019-05-02T14:17:35.266Z,33.18
2019-05-02T14:20:10.736Z,30.37
2019-05-02T14:22:34.423Z,35.05
2019-05-02T14:25:05.647Z,28.87
2019-05-02T14:27:34.100Z,27.07
2019-05-02T14:30:02.631Z,25.57
2019-05-02T14:32:33.580Z,29.53
2019-05-02T14:35:03.640Z,26.12
2019-05-02T14:37:32.290Z,27.45
2019-05-02T14:40:02.352Z,26.73
2019-05-02T14:42:32.232Z,23.07
2019-05-02T14:45:08.921Z,23.65
2019-05-02T14:47:34.534Z,23.52
2019-05-02T14:50:05.219Z,20.90
2019-05-02T14:52:37.152Z,22.15
2019-05-02T14:55:05.901Z,23.40
2019-05-02T14:57:34.336Z,21.40
2019-05-02T15:00:03.433Z,20.85
2019-05-02T15:02:39.223Z,22.07
2019-05-02T15:05:07.228Z,20.43
2019-05-02T15:07:38.405Z,24.80
2019-05-02T15:10:06.739Z,19.73
2019-05-02T15:12:38.893Z,19.90
2019-05-02T15:15:14.252Z,22.70
2019-05-02T15:17:42.708Z,22.30
2019-05-02T15:20:13.032Z,19.52
2019-05-02T15:22:42.455Z,26.48
2019-05-02T15:25:13.763Z,22.67
2019-05-02T15:27:43.038Z,19.25
2019-05-02T15:30:15.979Z,21.80
2019-05-02T15:32:46.620Z,19.57
2019-05-02T15:38:08.380Z,21.55
2019-05-02T15:40:46.850Z,19.92
2019-05-02T15:43:09.576Z,20.50
2019-05-02T15:45:42.040Z,17.32
2019-05-02T15:48:08.209Z,18.03
2019-05-02T15:50:43.587Z,22.20
2019-05-02T15:53:10.054Z,17.32
2019-05-02T15:55:42.130Z,10.63
2019-05-02T15:58:17.147Z,6.12
2019-05-02T16:00:48.330Z,6.25
2019-05-02T16:03:16.749Z,4.25
2019-05-02T16:05:45.353Z,4.35
2019-05-02T16:08:13.732Z,3.95
2019-05-02T16:10:42.832Z,1.52
2019-05-02T16:13:13.471Z,3.22
2019-05-02T16:15:46.573Z,1.90
2019-05-02T16:18:15.002Z,2.52
2019-05-02T16:21:04.473Z,2.05
2019-05-02T16:23:29.920Z,2.08
2019-05-02T16:25:52.374Z,3.00
2019-05-02T16:28:45.388Z,3.27
2019-05-02T16:31:17.041Z,2.95
2019-05-02T16:36:12.620Z,3.37
2019-05-02T16:38:42.442Z,4.47
2019-05-02T16:41:12.198Z,3.55
2019-05-02T16:43:41.927Z,5.87
2019-05-02T16:46:11.862Z,7.35
2019-05-02T16:48:42.607Z,8.08
2019-05-02T16:51:30.063Z,9.43
2019-05-02T16:53:43.364Z,6.05
2019-05-02T16:56:11.775Z,7.25
2019-05-02T16:58:43.319Z,11.53
2019-05-02T17:01:12.252Z,8.58
2019-05-02T17:03:42.354Z,8.13
2019-05-02T17:06:12.393Z,9.65
2019-05-02T17:08:49.570Z,9.68
2019-05-02T17:11:27.746Z,7.65
2019-05-02T17:14:02.151Z,11.57
2019-05-02T17:16:31.590Z,8.13
2019-05-02T17:19:01.687Z,7.22
2019-05-02T17:21:44.575Z,6.95
2019-05-02T17:24:02.484Z,9.70
2019-05-02T17:26:31.783Z,10.48
2019-05-02T17:29:02.407Z,8.87
2019-05-02T17:31:32.214Z,10.23
2019-05-02T17:34:02.767Z,10.58
2019-05-02T17:36:32.520Z,7.67
2019-05-02T17:39:06.777Z,12.55
2019-05-02T17:41:32.161Z,9.95
2019-05-02T17:44:00.568Z,10.08
2019-05-02T17:46:29.818Z,10.20
2019-05-02T17:48:58.203Z,9.63
2019-05-02T17:51:35.775Z,7.97
2019-05-02T17:54:03.262Z,14.65
2019-05-02T17:56:32.530Z,15.80
2019-05-02T17:59:02.327Z,13.70
2019-05-02T18:01:38.799Z,13.38
2019-05-02T18:04:16.598Z,13.83
2019-05-02T18:06:52.337Z,11.03
2019-05-02T18:09:21.648Z,11.15
2019-05-02T18:11:54.304Z,15.50
2019-05-02T18:14:24.098Z,15.53
2019-05-02T18:16:55.564Z,11.57
2019-05-02T18:19:24.513Z,12.47
2019-05-02T18:21:52.938Z,15.05
2019-05-02T18:24:22.281Z,12.75
2019-05-02T18:26:56.169Z,17.23
2019-05-02T18:29:27.092Z,17.35
2019-05-02T18:31:55.478Z,9.53
2019-05-02T18:34:25.237Z,20.72
2019-05-02T18:36:57.358Z,16.62
2019-05-02T18:40:06.727Z,12.78
2019-05-02T18:42:07.418Z,18.00
2019-05-02T18:44:39.593Z,17.37
2019-05-02T18:47:19.998Z,10.00
2019-05-02T18:49:42.127Z,14.05
2019-05-02T18:52:11.685Z,12.18
2019-05-02T18:54:45.683Z,12.55
2019-05-02T18:57:17.181Z,11.25
2019-05-02T18:59:52.070Z,14.33
2019-05-02T19:02:21.585Z,11.38
2019-05-02T19:04:52.695Z,13.20
2019-05-02T19:07:30.907Z,9.45
2019-05-02T19:10:18.838Z,10.08
2019-05-02T19:12:56.210Z,13.00
2019-05-02T19:15:55.946Z,15.23
2019-05-02T19:18:54.466Z,11.93
2019-05-02T19:28:07.159Z,9.60
2019-05-02T19:33:46.647Z,10.20
2019-05-02T19:39:29.260Z,8.27
2019-05-02T19:41:57.686Z,13.10
2019-05-02T19:44:29.142Z,14.43
2019-05-02T19:46:57.033Z,7.50
2019-05-02T19:49:27.912Z,12.07
2019-05-02T19:51:59.424Z,10.98
2019-05-02T19:54:31.806Z,11.57
2019-05-02T19:56:57.962Z,8.70
2019-05-02T19:59:27.395Z,8.83
2019-05-02T20:01:56.971Z,10.48
2019-05-02T20:04:26.758Z,8.80
2019-05-02T20:06:55.159Z,10.68
2019-05-02T20:09:23.668Z,11.73
2019-05-02T20:11:52.238Z,8.80
2019-05-02T20:14:21.840Z,11.35
2019-05-02T20:16:53.337Z,10.90
2019-05-02T20:19:23.195Z,8.85
2019-05-02T20:21:57.206Z,11.40
2019-05-02T20:26:56.126Z,14.30
2019-05-02T20:29:23.499Z,15.10
2019-05-02T20:31:58.183Z,13.32
2019-05-02T20:34:26.582Z,8.63
2019-05-02T20:36:58.854Z,9.18
2019-05-02T20:42:02.693Z,11.80
2019-05-02T20:44:32.084Z,13.62
2019-05-02T20:47:02.586Z,12.60
2019-05-02T20:49:31.202Z,11.12
2019-05-02T20:51:59.741Z,9.95
2019-05-02T20:54:28.784Z,9.65
2019-05-02T20:56:59.968Z,11.80
2019-05-02T20:59:29.317Z,7.10
2019-05-02T21:02:01.722Z,6.90
2019-05-02T21:04:34.957Z,12.90
2019-05-02T21:07:09.444Z,10.00
2019-05-02T21:09:44.404Z,9.23
2019-05-02T21:12:13.909Z,9.72
2019-05-02T21:14:42.372Z,6.28
2019-05-02T21:17:12.751Z,7.33
2019-05-02T21:19:45.907Z,14.10
2019-05-02T21:22:18.688Z,11.15
2019-05-02T21:24:49.933Z,10.38
2019-05-02T21:27:19.428Z,9.05
2019-05-02T21:29:47.911Z,7.10
2019-05-02T21:32:22.913Z,8.58
2019-05-02T21:34:52.551Z,9.55
2019-05-02T21:37:22.605Z,7.50
2019-05-02T21:39:52.297Z,7.72
2019-05-02T21:42:22.636Z,9.30
2019-05-02T21:44:52.495Z,8.80
2019-05-02T21:47:23.366Z,10.63
2019-05-02T21:49:56.177Z,9.85
2019-05-02T21:52:26.284Z,7.60
2019-05-02T21:54:58.604Z,11.45
2019-05-02T21:57:27.050Z,7.97
2019-05-02T21:59:55.506Z,8.30
2019-05-02T22:02:26.640Z,7.40
2019-05-02T22:04:56.910Z,9.93
2019-05-02T22:07:25.366Z,12.67
2019-05-02T22:09:57.640Z,12.70
2019-05-02T22:12:27.135Z,8.03
2019-05-02T22:14:57.938Z,11.93
2019-05-02T22:17:32.329Z,10.90
2019-05-02T22:20:01.801Z,11.50
2019-05-02T22:22:31.758Z,8.08
2019-05-02T22:25:02.245Z,11.43
2019-05-02T22:27:32.475Z,8.03
2019-05-02T22:30:02.129Z,11.30
2019-05-02T22:32:36.783Z,7.13
2019-05-02T22:35:05.991Z,10.98
2019-05-02T22:37:37.289Z,16.30
2019-05-02T22:40:13.554Z,8.15
2019-05-02T22:42:42.136Z,10.98
2019-05-02T22:45:12.535Z,9.50
2019-05-02T22:47:42.617Z,10.70
2019-05-02T22:50:15.295Z,10.63
2019-05-02T22:52:42.748Z,6.73
2019-05-02T22:55:16.909Z,11.05
2019-05-02T22:57:45.486Z,10.00
2019-05-02T23:00:14.375Z,11.22
2019-05-02T23:02:42.903Z,10.13
2019-05-02T23:05:13.758Z,11.55
2019-05-02T23:07:42.970Z,12.28
2019-05-02T23:10:12.638Z,5.85
2019-05-02T23:12:42.373Z,13.32
2019-05-02T23:15:12.575Z,8.13
2019-05-02T23:17:42.778Z,10.38
2019-05-02T23:20:14.012Z,9.03
2019-05-02T23:22:43.516Z,8.13
2019-05-02T23:25:14.332Z,10.15
2019-05-02T23:27:44.472Z,8.00
2019-05-02T23:30:15.208Z,10.58
2019-05-02T23:32:45.328Z,7.28
2019-05-02T23:35:13.833Z,13.05
2019-05-02T23:37:42.501Z,11.45
2019-05-02T23:40:14.018Z,10.15
2019-05-02T23:42:42.476Z,12.97
2019-05-02T23:45:13.505Z,10.48
2019-05-02T23:47:42.911Z,14.60
2019-05-02T23:50:12.149Z,7.75
2019-05-02T23:52:43.127Z,8.13
2019-05-02T23:55:12.300Z,13.93
2019-05-02T23:57:42.047Z,13.40
